sensor_id;sensor_type;location;lat;lon;timestamp;P1;durP1;ratioP1;P2;durP2;ratioP2
173;SDS011;75;48.784;9.364;2023-06-19T00:00:16;12.83;;;10.50;;
173;SDS011;75;48.784;9.364;2023-06-19T00:02:42;14.33;;;10.60;;
173;SDS011;75;48.784;9.364;2023-06-19T00:05:09;11.90;;;10.30;;
173;SDS011;75;48.784;9.364;2023-06-19T00:07:38;13.17;;;9.73;;
173;SDS011;75;48.784;9.364;2023-06-19T00:10:04;11.77;;;9.60;;
173;SDS011;75;48.784;9.364;2023-06-19T00:12:31;11.77;;;10.17;;
173;SDS011;75;48.784;9.364;2023-06-19T00:14:57;12.80;;;10.30;;
173;SDS011;75;48.784;9.364;2023-06-19T00:17:23;12.53;;;10.00;;
173;SDS011;75;48.784;9.364;2023-06-19T00:19:50;12.80;;;9.73;;
173;SDS011;75;48.784;9.364;2023-06-19T00:22:16;16.00;;;10.50;;
173;SDS011;75;48.784;9.364;2023-06-19T00:24:43;12.57;;;10.07;;
173;SDS011;75;48.784;9.364;2023-06-19T00:27:09;14.90;;;10.90;;
173;SDS011;75;48.784;9.364;2023-06-19T00:29:35;13.00;;;10.73;;
173;SDS011;75;48.784;9.364;2023-06-19T00:32:01;11.00;;;9.80;;
173;SDS011;75;48.784;9.364;2023-06-19T00:34:28;14.00;;;10.07;;
173;SDS011;75;48.784;9.364;2023-06-19T00:36:55;13.50;;;10.43;;
173;SDS011;75;48.784;9.364;2023-06-19T00:39:22;14.20;;;10.77;;
173;SDS011;75;48.784;9.364;2023-06-19T00:41:49;15.00;;;10.73;;
173;SDS011;75;48.784;9.364;2023-06-19T00:44:16;11.83;;;10.20;;
173;SDS011;75;48.784;9.364;2023-06-19T00:46:42;12.40;;;10.30;;
173;SDS011;75;48.784;9.364;2023-06-19T00:49:08;12.97;;;10.17;;
173;SDS011;75;48.784;9.364;2023-06-19T00:51:34;16.63;;;10.17;;
173;SDS011;75;48.784;9.364;2023-06-19T00:54:00;15.00;;;10.40;;
173;SDS011;75;48.784;9.364;2023-06-19T00:56:26;12.50;;;10.20;;
173;SDS011;75;48.784;9.364;2023-06-19T00:58:53;10.70;;;9.40;;
173;SDS011;75;48.784;9.364;2023-06-19T01:01:19;16.00;;;10.20;;
173;SDS011;75;48.784;9.364;2023-06-19T01:03:46;20.17;;;10.10;;
173;SDS011;75;48.784;9.364;2023-06-19T01:06:13;14.00;;;10.07;;
173;SDS011;75;48.784;9.364;2023-06-19T01:08:45;12.50;;;10.13;;
173;SDS011;75;48.784;9.364;2023-06-19T01:11:15;14.17;;;10.17;;
173;SDS011;75;48.784;9.364;2023-06-19T01:13:51;14.77;;;9.67;;
173;SDS011;75;48.784;9.364;2023-06-19T01:16:21;12.00;;;10.17;;
173;SDS011;75;48.784;9.364;2023-06-19T01:18:47;12.50;;;10.13;;
173;SDS011;75;48.784;9.364;2023-06-19T01:21:15;12.00;;;9.40;;
173;SDS011;75;48.784;9.364;2023-06-19T01:23:41;11.73;;;9.50;;
173;SDS011;75;48.784;9.364;2023-06-19T01:26:08;14.57;;;10.60;;
173;SDS011;75;48.784;9.364;2023-06-19T01:28:37;12.80;;;9.37;;
173;SDS011;75;48.784;9.364;2023-06-19T01:33:49;13.27;;;9.80;;
173;SDS011;75;48.784;9.364;2023-06-19T01:36:16;13.97;;;9.70;;
173;SDS011;75;48.784;9.364;2023-06-19T01:38:43;11.20;;;9.60;;
173;SDS011;75;48.784;9.364;2023-06-19T01:41:09;13.13;;;10.43;;
173;SDS011;75;48.784;9.364;2023-06-19T01:43:36;15.33;;;9.67;;
173;SDS011;75;48.784;9.364;2023-06-19T01:46:02;12.13;;;9.60;;
173;SDS011;75;48.784;9.364;2023-06-19T01:48:28;16.53;;;10.10;;
173;SDS011;75;48.784;9.364;2023-06-19T01:50:54;12.00;;;10.03;;
173;SDS011;75;48.784;9.364;2023-06-19T01:53:20;12.00;;;9.50;;
173;SDS011;75;48.784;9.364;2023-06-19T01:55:46;12.70;;;9.57;;
173;SDS011;75;48.784;9.364;2023-06-19T01:58:12;13.30;;;9.40;;
173;SDS011;75;48.784;9.364;2023-06-19T02:00:38;11.17;;;8.30;;
173;SDS011;75;48.784;9.364;2023-06-19T02:03:04;11.13;;;8.67;;
173;SDS011;75;48.784;9.364;2023-06-19T02:05:30;10.30;;;8.33;;
173;SDS011;75;48.784;9.364;2023-06-19T02:07:56;11.87;;;8.43;;
173;SDS011;75;48.784;9.364;2023-06-19T02:10:22;11.60;;;8.43;;
173;SDS011;75;48.784;9.364;2023-06-19T02:12:48;11.27;;;8.40;;
173;SDS011;75;48.784;9.364;2023-06-19T02:15:14;14.43;;;9.00;;
173;SDS011;75;48.784;9.364;2023-06-19T02:17:40;10.30;;;8.50;;
173;SDS011;75;48.784;9.364;2023-06-19T02:20:07;11.00;;;8.90;;
173;SDS011;75;48.784;9.364;2023-06-19T02:22:34;12.43;;;8.37;;
173;SDS011;75;48.784;9.364;2023-06-19T02:25:00;14.23;;;8.73;;
173;SDS011;75;48.784;9.364;2023-06-19T02:27:26;10.70;;;8.27;;
173;SDS011;75;48.784;9.364;2023-06-19T02:29:52;11.83;;;8.57;;
173;SDS011;75;48.784;9.364;2023-06-19T02:32:18;9.40;;;8.30;;
173;SDS011;75;48.784;9.364;2023-06-19T02:34:44;10.07;;;7.87;;
173;SDS011;75;48.784;9.364;2023-06-19T02:37:11;11.00;;;8.60;;
173;SDS011;75;48.784;9.364;2023-06-19T02:39:36;10.57;;;8.53;;
173;SDS011;75;48.784;9.364;2023-06-19T02:42:03;11.53;;;8.90;;
173;SDS011;75;48.784;9.364;2023-06-19T02:44:29;10.40;;;8.77;;
173;SDS011;75;48.784;9.364;2023-06-19T02:46:55;9.40;;;8.30;;
173;SDS011;75;48.784;9.364;2023-06-19T02:49:21;11.73;;;8.67;;
173;SDS011;75;48.784;9.364;2023-06-19T02:51:47;13.50;;;9.00;;
173;SDS011;75;48.784;9.364;2023-06-19T02:54:13;10.00;;;8.50;;
173;SDS011;75;48.784;9.364;2023-06-19T02:56:39;10.30;;;8.63;;
173;SDS011;75;48.784;9.364;2023-06-19T02:59:05;11.60;;;8.73;;
173;SDS011;75;48.784;9.364;2023-06-19T03:01:31;11.20;;;9.40;;
173;SDS011;75;48.784;9.364;2023-06-19T03:03:58;11.30;;;8.50;;
173;SDS011;75;48.784;9.364;2023-06-19T03:06:24;10.50;;;8.70;;
173;SDS011;75;48.784;9.364;2023-06-19T03:08:51;11.67;;;8.63;;
173;SDS011;75;48.784;9.364;2023-06-19T03:11:17;11.53;;;9.20;;
173;SDS011;75;48.784;9.364;2023-06-19T03:13:50;11.33;;;8.97;;
173;SDS011;75;48.784;9.364;2023-06-19T03:16:16;12.37;;;9.17;;
173;SDS011;75;48.784;9.364;2023-06-19T03:18:42;12.10;;;9.43;;
173;SDS011;75;48.784;9.364;2023-06-19T03:21:12;9.53;;;8.50;;
173;SDS011;75;48.784;9.364;2023-06-19T03:23:38;10.83;;;8.90;;
173;SDS011;75;48.784;9.364;2023-06-19T03:26:06;10.80;;;8.60;;
173;SDS011;75;48.784;9.364;2023-06-19T03:28:32;11.43;;;8.77;;
173;SDS011;75;48.784;9.364;2023-06-19T03:30:58;11.47;;;8.30;;
173;SDS011;75;48.784;9.364;2023-06-19T03:33:24;12.30;;;8.23;;
173;SDS011;75;48.784;9.364;2023-06-19T03:35:50;10.40;;;8.10;;
173;SDS011;75;48.784;9.364;2023-06-19T03:38:15;11.10;;;7.93;;
173;SDS011;75;48.784;9.364;2023-06-19T03:40:41;10.17;;;7.80;;
173;SDS011;75;48.784;9.364;2023-06-19T03:43:08;9.43;;;7.87;;
173;SDS011;75;48.784;9.364;2023-06-19T03:45:34;9.37;;;7.67;;
173;SDS011;75;48.784;9.364;2023-06-19T03:47:59;10.13;;;7.90;;
173;SDS011;75;48.784;9.364;2023-06-19T03:50:25;9.63;;;7.70;;
173;SDS011;75;48.784;9.364;2023-06-19T03:52:51;10.40;;;7.47;;
173;SDS011;75;48.784;9.364;2023-06-19T03:55:17;9.13;;;6.80;;
173;SDS011;75;48.784;9.364;2023-06-19T03:57:43;9.73;;;7.67;;
173;SDS011;75;48.784;9.364;2023-06-19T04:00:09;9.50;;;6.70;;
173;SDS011;75;48.784;9.364;2023-06-19T04:02:38;7.90;;;6.97;;
173;SDS011;75;48.784;9.364;2023-06-19T04:05:04;8.93;;;7.27;;
173;SDS011;75;48.784;9.364;2023-06-19T04:07:30;10.47;;;7.60;;
173;SDS011;75;48.784;9.364;2023-06-19T04:09:56;12.00;;;7.60;;
173;SDS011;75;48.784;9.364;2023-06-19T04:12:22;9.10;;;7.23;;
173;SDS011;75;48.784;9.364;2023-06-19T04:14:48;9.90;;;6.63;;
173;SDS011;75;48.784;9.364;2023-06-19T04:17:14;8.50;;;6.37;;
173;SDS011;75;48.784;9.364;2023-06-19T04:19:40;8.90;;;6.77;;
173;SDS011;75;48.784;9.364;2023-06-19T04:22:06;9.43;;;6.53;;
173;SDS011;75;48.784;9.364;2023-06-19T04:24:32;8.77;;;6.63;;
173;SDS011;75;48.784;9.364;2023-06-19T04:26:58;7.50;;;6.27;;
173;SDS011;75;48.784;9.364;2023-06-19T04:29:24;7.80;;;6.20;;
173;SDS011;75;48.784;9.364;2023-06-19T04:31:50;8.10;;;6.80;;
173;SDS011;75;48.784;9.364;2023-06-19T04:34:16;8.70;;;6.97;;
173;SDS011;75;48.784;9.364;2023-06-19T04:36:46;9.03;;;7.07;;
173;SDS011;75;48.784;9.364;2023-06-19T04:39:12;9.30;;;7.63;;
173;SDS011;75;48.784;9.364;2023-06-19T04:41:38;8.53;;;7.17;;
173;SDS011;75;48.784;9.364;2023-06-19T04:44:04;10.00;;;7.60;;
173;SDS011;75;48.784;9.364;2023-06-19T04:46:31;9.93;;;7.40;;
173;SDS011;75;48.784;9.364;2023-06-19T04:48:57;9.33;;;6.93;;
173;SDS011;75;48.784;9.364;2023-06-19T04:51:23;9.27;;;7.50;;
173;SDS011;75;48.784;9.364;2023-06-19T04:53:48;8.83;;;6.90;;
173;SDS011;75;48.784;9.364;2023-06-19T04:56:14;8.33;;;6.80;;
173;SDS011;75;48.784;9.364;2023-06-19T04:58:41;10.10;;;7.13;;
173;SDS011;75;48.784;9.364;2023-06-19T05:01:14;9.30;;;7.17;;
173;SDS011;75;48.784;9.364;2023-06-19T05:03:40;9.60;;;7.00;;
173;SDS011;75;48.784;9.364;2023-06-19T05:06:07;12.00;;;6.80;;
173;SDS011;75;48.784;9.364;2023-06-19T05:08:33;8.70;;;6.83;;
173;SDS011;75;48.784;9.364;2023-06-19T05:10:59;9.27;;;7.10;;
173;SDS011;75;48.784;9.364;2023-06-19T05:13:25;11.43;;;7.43;;
173;SDS011;75;48.784;9.364;2023-06-19T05:15:51;9.23;;;7.17;;
173;SDS011;75;48.784;9.364;2023-06-19T05:18:17;11.90;;;7.20;;
173;SDS011;75;48.784;9.364;2023-06-19T05:20:43;17.83;;;7.10;;
173;SDS011;75;48.784;9.364;2023-06-19T05:23:10;8.30;;;6.80;;
173;SDS011;75;48.784;9.364;2023-06-19T05:25:36;9.87;;;6.80;;
173;SDS011;75;48.784;9.364;2023-06-19T05:28:02;10.27;;;6.90;;
173;SDS011;75;48.784;9.364;2023-06-19T05:30:28;10.27;;;7.77;;
173;SDS011;75;48.784;9.364;2023-06-19T05:32:54;10.00;;;7.20;;
173;SDS011;75;48.784;9.364;2023-06-19T05:35:20;10.93;;;7.20;;
173;SDS011;75;48.784;9.364;2023-06-19T05:37:46;9.87;;;7.30;;
173;SDS011;75;48.784;9.364;2023-06-19T05:40:12;8.30;;;6.77;;
173;SDS011;75;48.784;9.364;2023-06-19T05:42:39;8.67;;;6.97;;
173;SDS011;75;48.784;9.364;2023-06-19T05:45:05;7.30;;;6.10;;
173;SDS011;75;48.784;9.364;2023-06-19T05:47:31;7.80;;;6.33;;
173;SDS011;75;48.784;9.364;2023-06-19T05:49:57;8.50;;;6.70;;
173;SDS011;75;48.784;9.364;2023-06-19T05:52:23;11.40;;;6.20;;
173;SDS011;75;48.784;9.364;2023-06-19T05:54:50;7.97;;;6.40;;
173;SDS011;75;48.784;9.364;2023-06-19T05:57:16;7.80;;;6.40;;
173;SDS011;75;48.784;9.364;2023-06-19T05:59:45;8.53;;;6.80;;
173;SDS011;75;48.784;9.364;2023-06-19T06:02:11;8.90;;;6.10;;
173;SDS011;75;48.784;9.364;2023-06-19T06:04:37;7.93;;;6.00;;
173;SDS011;75;48.784;9.364;2023-06-19T06:07:03;7.30;;;5.57;;
173;SDS011;75;48.784;9.364;2023-06-19T06:09:29;8.83;;;5.87;;
173;SDS011;75;48.784;9.364;2023-06-19T06:11:55;7.77;;;5.47;;
173;SDS011;75;48.784;9.364;2023-06-19T06:14:21;6.57;;;5.60;;
173;SDS011;75;48.784;9.364;2023-06-19T06:16:47;7.30;;;5.57;;
173;SDS011;75;48.784;9.364;2023-06-19T06:19:13;7.80;;;5.90;;
173;SDS011;75;48.784;9.364;2023-06-19T06:21:39;6.50;;;5.50;;
173;SDS011;75;48.784;9.364;2023-06-19T06:24:05;7.20;;;5.90;;
173;SDS011;75;48.784;9.364;2023-06-19T06:26:32;7.83;;;6.10;;
173;SDS011;75;48.784;9.364;2023-06-19T06:28:58;7.07;;;5.83;;
173;SDS011;75;48.784;9.364;2023-06-19T06:31:24;6.87;;;5.67;;
173;SDS011;75;48.784;9.364;2023-06-19T06:33:50;7.10;;;5.47;;
173;SDS011;75;48.784;9.364;2023-06-19T06:36:16;8.23;;;5.53;;
173;SDS011;75;48.784;9.364;2023-06-19T06:38:42;8.40;;;5.67;;
173;SDS011;75;48.784;9.364;2023-06-19T06:41:08;6.83;;;5.67;;
173;SDS011;75;48.784;9.364;2023-06-19T06:43:34;9.33;;;6.37;;
173;SDS011;75;48.784;9.364;2023-06-19T06:46:00;6.30;;;5.70;;
173;SDS011;75;48.784;9.364;2023-06-19T06:48:26;9.43;;;5.93;;
173;SDS011;75;48.784;9.364;2023-06-19T06:50:52;9.10;;;6.20;;
173;SDS011;75;48.784;9.364;2023-06-19T06:53:26;10.97;;;6.10;;
173;SDS011;75;48.784;9.364;2023-06-19T06:55:53;7.80;;;5.90;;
173;SDS011;75;48.784;9.364;2023-06-19T06:58:18;9.00;;;5.50;;
173;SDS011;75;48.784;9.364;2023-06-19T07:00:45;8.00;;;5.57;;
173;SDS011;75;48.784;9.364;2023-06-19T07:03:11;6.80;;;5.50;;
173;SDS011;75;48.784;9.364;2023-06-19T07:05:38;9.33;;;5.90;;
173;SDS011;75;48.784;9.364;2023-06-19T07:08:04;9.10;;;5.40;;
173;SDS011;75;48.784;9.364;2023-06-19T07:10:30;9.70;;;5.83;;
173;SDS011;75;48.784;9.364;2023-06-19T07:12:56;6.93;;;5.90;;
173;SDS011;75;48.784;9.364;2023-06-19T07:15:22;8.13;;;5.60;;
173;SDS011;75;48.784;9.364;2023-06-19T07:17:48;8.73;;;5.87;;
173;SDS011;75;48.784;9.364;2023-06-19T07:20:14;7.13;;;5.50;;
173;SDS011;75;48.784;9.364;2023-06-19T07:22:41;8.63;;;5.73;;
173;SDS011;75;48.784;9.364;2023-06-19T07:25:07;7.20;;;5.57;;
173;SDS011;75;48.784;9.364;2023-06-19T07:27:33;6.37;;;4.67;;
173;SDS011;75;48.784;9.364;2023-06-19T07:29:59;5.77;;;4.90;;
173;SDS011;75;48.784;9.364;2023-06-19T07:32:25;7.53;;;4.77;;
173;SDS011;75;48.784;9.364;2023-06-19T07:34:51;5.83;;;4.87;;
173;SDS011;75;48.784;9.364;2023-06-19T07:37:17;6.63;;;4.97;;
173;SDS011;75;48.784;9.364;2023-06-19T07:39:50;7.80;;;5.07;;
173;SDS011;75;48.784;9.364;2023-06-19T07:42:17;5.43;;;4.73;;
173;SDS011;75;48.784;9.364;2023-06-19T07:44:43;6.10;;;4.30;;
173;SDS011;75;48.784;9.364;2023-06-19T07:47:09;6.73;;;4.97;;
173;SDS011;75;48.784;9.364;2023-06-19T07:49:35;5.70;;;4.27;;
173;SDS011;75;48.784;9.364;2023-06-19T07:52:02;5.60;;;4.13;;
173;SDS011;75;48.784;9.364;2023-06-19T07:54:28;5.07;;;4.20;;
173;SDS011;75;48.784;9.364;2023-06-19T07:56:54;5.67;;;4.50;;
173;SDS011;75;48.784;9.364;2023-06-19T07:59:21;6.43;;;4.27;;
173;SDS011;75;48.784;9.364;2023-06-19T08:01:47;5.37;;;4.20;;
173;SDS011;75;48.784;9.364;2023-06-19T08:04:13;5.77;;;4.00;;
173;SDS011;75;48.784;9.364;2023-06-19T08:06:40;5.50;;;3.73;;
173;SDS011;75;48.784;9.364;2023-06-19T08:09:06;5.00;;;4.17;;
173;SDS011;75;48.784;9.364;2023-06-19T08:11:32;5.53;;;4.10;;
173;SDS011;75;48.784;9.364;2023-06-19T08:13:58;4.73;;;3.80;;
173;SDS011;75;48.784;9.364;2023-06-19T08:16:24;5.80;;;3.90;;
173;SDS011;75;48.784;9.364;2023-06-19T08:18:51;5.83;;;4.30;;
173;SDS011;75;48.784;9.364;2023-06-19T08:21:17;5.07;;;4.10;;
173;SDS011;75;48.784;9.364;2023-06-19T08:23:45;7.50;;;4.13;;
173;SDS011;75;48.784;9.364;2023-06-19T08:26:11;4.97;;;4.27;;
173;SDS011;75;48.784;9.364;2023-06-19T08:28:37;6.00;;;4.10;;
173;SDS011;75;48.784;9.364;2023-06-19T08:31:05;4.97;;;3.77;;
173;SDS011;75;48.784;9.364;2023-06-19T08:33:31;5.57;;;3.77;;
173;SDS011;75;48.784;9.364;2023-06-19T08:35:57;6.27;;;4.50;;
173;SDS011;75;48.784;9.364;2023-06-19T08:38:23;8.23;;;4.00;;
173;SDS011;75;48.784;9.364;2023-06-19T08:40:49;4.93;;;3.93;;
173;SDS011;75;48.784;9.364;2023-06-19T08:43:15;7.13;;;4.20;;
173;SDS011;75;48.784;9.364;2023-06-19T08:45:41;5.00;;;4.10;;
173;SDS011;75;48.784;9.364;2023-06-19T08:48:07;5.60;;;4.20;;
173;SDS011;75;48.784;9.364;2023-06-19T08:50:33;5.63;;;4.00;;
173;SDS011;75;48.784;9.364;2023-06-19T08:52:59;8.70;;;3.83;;
173;SDS011;75;48.784;9.364;2023-06-19T08:55:25;5.37;;;4.20;;
173;SDS011;75;48.784;9.364;2023-06-19T08:57:51;6.93;;;4.50;;
173;SDS011;75;48.784;9.364;2023-06-19T09:00:27;5.77;;;4.60;;
173;SDS011;75;48.784;9.364;2023-06-19T09:02:58;7.50;;;4.10;;
173;SDS011;75;48.784;9.364;2023-06-19T09:05:24;5.60;;;4.50;;
173;SDS011;75;48.784;9.364;2023-06-19T09:07:55;6.23;;;4.67;;
173;SDS011;75;48.784;9.364;2023-06-19T09:10:21;5.43;;;4.30;;
173;SDS011;75;48.784;9.364;2023-06-19T09:12:59;5.47;;;4.53;;
173;SDS011;75;48.784;9.364;2023-06-19T09:15:27;5.07;;;4.20;;
173;SDS011;75;48.784;9.364;2023-06-19T09:18:02;5.47;;;4.57;;
173;SDS011;75;48.784;9.364;2023-06-19T09:20:28;5.17;;;4.30;;
173;SDS011;75;48.784;9.364;2023-06-19T09:22:55;6.47;;;4.80;;
173;SDS011;75;48.784;9.364;2023-06-19T09:25:21;6.63;;;4.50;;
173;SDS011;75;48.784;9.364;2023-06-19T09:27:48;7.90;;;4.60;;
173;SDS011;75;48.784;9.364;2023-06-19T09:30:15;5.07;;;4.30;;
173;SDS011;75;48.784;9.364;2023-06-19T09:32:41;5.37;;;4.27;;
173;SDS011;75;48.784;9.364;2023-06-19T09:35:07;5.80;;;4.57;;
173;SDS011;75;48.784;9.364;2023-06-19T09:37:33;5.57;;;4.10;;
173;SDS011;75;48.784;9.364;2023-06-19T09:40:00;7.10;;;4.30;;
173;SDS011;75;48.784;9.364;2023-06-19T09:42:34;7.80;;;4.23;;
173;SDS011;75;48.784;9.364;2023-06-19T09:45:01;6.67;;;4.70;;
173;SDS011;75;48.784;9.364;2023-06-19T09:47:37;5.50;;;4.20;;
173;SDS011;75;48.784;9.364;2023-06-19T09:50:03;5.43;;;4.67;;
173;SDS011;75;48.784;9.364;2023-06-19T09:52:30;5.47;;;4.70;;
173;SDS011;75;48.784;9.364;2023-06-19T09:54:56;5.97;;;5.03;;
173;SDS011;75;48.784;9.364;2023-06-19T09:57:24;9.20;;;4.93;;
173;SDS011;75;48.784;9.364;2023-06-19T09:59:55;6.77;;;5.47;;
173;SDS011;75;48.784;9.364;2023-06-19T10:02:22;8.37;;;5.07;;
173;SDS011;75;48.784;9.364;2023-06-19T10:04:55;7.10;;;4.90;;
173;SDS011;75;48.784;9.364;2023-06-19T10:07:22;6.10;;;4.67;;
173;SDS011;75;48.784;9.364;2023-06-19T10:09:57;7.07;;;5.70;;
173;SDS011;75;48.784;9.364;2023-06-19T10:12:33;7.20;;;5.00;;
173;SDS011;75;48.784;9.364;2023-06-19T10:15:06;7.07;;;4.83;;
173;SDS011;75;48.784;9.364;2023-06-19T10:17:33;5.53;;;4.70;;
173;SDS011;75;48.784;9.364;2023-06-19T10:19:59;6.90;;;4.67;;
173;SDS011;75;48.784;9.364;2023-06-19T10:22:29;6.80;;;5.30;;
173;SDS011;75;48.784;9.364;2023-06-19T10:24:55;6.27;;;4.60;;
173;SDS011;75;48.784;9.364;2023-06-19T10:27:21;7.20;;;5.20;;
173;SDS011;75;48.784;9.364;2023-06-19T10:29:54;5.80;;;4.83;;
173;SDS011;75;48.784;9.364;2023-06-19T10:32:22;8.90;;;5.20;;
173;SDS011;75;48.784;9.364;2023-06-19T10:34:48;7.03;;;4.90;;
173;SDS011;75;48.784;9.364;2023-06-19T10:37:15;5.80;;;5.03;;
173;SDS011;75;48.784;9.364;2023-06-19T10:39:42;5.90;;;5.00;;
173;SDS011;75;48.784;9.364;2023-06-19T10:42:08;6.20;;;5.30;;
173;SDS011;75;48.784;9.364;2023-06-19T10:44:34;5.70;;;4.87;;
173;SDS011;75;48.784;9.364;2023-06-19T10:47:02;8.60;;;5.57;;
173;SDS011;75;48.784;9.364;2023-06-19T10:49:28;6.03;;;4.97;;
173;SDS011;75;48.784;9.364;2023-06-19T10:51:54;6.13;;;5.10;;
173;SDS011;75;48.784;9.364;2023-06-19T10:54:24;7.27;;;5.20;;
173;SDS011;75;48.784;9.364;2023-06-19T10:56:50;9.30;;;4.70;;
173;SDS011;75;48.784;9.364;2023-06-19T10:59:16;6.20;;;4.70;;
173;SDS011;75;48.784;9.364;2023-06-19T11:01:47;5.23;;;4.57;;
173;SDS011;75;48.784;9.364;2023-06-19T11:04:15;9.57;;;5.40;;
173;SDS011;75;48.784;9.364;2023-06-19T11:06:42;5.80;;;4.67;;
173;SDS011;75;48.784;9.364;2023-06-19T11:09:09;6.20;;;5.03;;
173;SDS011;75;48.784;9.364;2023-06-19T11:14:01;6.77;;;4.97;;
173;SDS011;75;48.784;9.364;2023-06-19T11:16:27;8.43;;;5.17;;
173;SDS011;75;48.784;9.364;2023-06-19T11:18:57;5.50;;;4.90;;
173;SDS011;75;48.784;9.364;2023-06-19T11:21:29;5.80;;;4.90;;
173;SDS011;75;48.784;9.364;2023-06-19T11:23:57;5.50;;;4.77;;
173;SDS011;75;48.784;9.364;2023-06-19T11:26:24;6.50;;;5.50;;
173;SDS011;75;48.784;9.364;2023-06-19T11:28:50;7.80;;;5.00;;
173;SDS011;75;48.784;9.364;2023-06-19T11:31:16;10.97;;;6.20;;
173;SDS011;75;48.784;9.364;2023-06-19T11:33:42;8.27;;;5.67;;
173;SDS011;75;48.784;9.364;2023-06-19T11:36:08;12.23;;;6.80;;
173;SDS011;75;48.784;9.364;2023-06-19T11:38:35;7.73;;;5.80;;
173;SDS011;75;48.784;9.364;2023-06-19T11:41:01;7.67;;;5.70;;
173;SDS011;75;48.784;9.364;2023-06-19T11:45:53;8.37;;;5.53;;
173;SDS011;75;48.784;9.364;2023-06-19T11:48:23;10.40;;;6.70;;
173;SDS011;75;48.784;9.364;2023-06-19T11:50:49;7.17;;;5.77;;
173;SDS011;75;48.784;9.364;2023-06-19T11:53:16;7.57;;;5.80;;
173;SDS011;75;48.784;9.364;2023-06-19T11:55:42;10.13;;;5.60;;
173;SDS011;75;48.784;9.364;2023-06-19T11:58:08;6.80;;;5.57;;
173;SDS011;75;48.784;9.364;2023-06-19T12:00:35;7.00;;;5.80;;
173;SDS011;75;48.784;9.364;2023-06-19T12:03:02;6.40;;;5.80;;
173;SDS011;75;48.784;9.364;2023-06-19T12:05:28;5.70;;;5.13;;
173;SDS011;75;48.784;9.364;2023-06-19T12:07:54;6.50;;;5.37;;
173;SDS011;75;48.784;9.364;2023-06-19T12:10:20;6.27;;;5.50;;
173;SDS011;75;48.784;9.364;2023-06-19T12:12:46;8.00;;;5.33;;
173;SDS011;75;48.784;9.364;2023-06-19T12:15:12;6.00;;;5.10;;
173;SDS011;75;48.784;9.364;2023-06-19T12:17:38;7.10;;;5.10;;
173;SDS011;75;48.784;9.364;2023-06-19T12:20:04;8.70;;;5.60;;
173;SDS011;75;48.784;9.364;2023-06-19T12:22:34;7.10;;;5.60;;
173;SDS011;75;48.784;9.364;2023-06-19T12:25:00;6.00;;;5.30;;
173;SDS011;75;48.784;9.364;2023-06-19T12:27:26;8.37;;;5.60;;
173;SDS011;75;48.784;9.364;2023-06-19T12:29:52;7.50;;;5.70;;
173;SDS011;75;48.784;9.364;2023-06-19T12:32:19;8.20;;;5.70;;
173;SDS011;75;48.784;9.364;2023-06-19T12:34:46;6.90;;;5.10;;
173;SDS011;75;48.784;9.364;2023-06-19T12:37:15;7.50;;;5.93;;
173;SDS011;75;48.784;9.364;2023-06-19T12:39:44;9.50;;;6.23;;
173;SDS011;75;48.784;9.364;2023-06-19T12:42:10;6.50;;;5.57;;
173;SDS011;75;48.784;9.364;2023-06-19T12:44:37;6.73;;;5.67;;
173;SDS011;75;48.784;9.364;2023-06-19T12:47:03;7.00;;;5.73;;
173;SDS011;75;48.784;9.364;2023-06-19T12:49:30;7.93;;;5.73;;
173;SDS011;75;48.784;9.364;2023-06-19T12:51:56;6.10;;;5.33;;
173;SDS011;75;48.784;9.364;2023-06-19T12:54:22;8.20;;;5.57;;
173;SDS011;75;48.784;9.364;2023-06-19T12:56:48;7.63;;;5.77;;
173;SDS011;75;48.784;9.364;2023-06-19T12:59:14;7.20;;;5.53;;
173;SDS011;75;48.784;9.364;2023-06-19T13:01:41;6.50;;;5.30;;
173;SDS011;75;48.784;9.364;2023-06-19T13:04:07;8.70;;;5.30;;
173;SDS011;75;48.784;9.364;2023-06-19T13:06:33;6.53;;;5.50;;
173;SDS011;75;48.784;9.364;2023-06-19T13:09:00;6.87;;;5.37;;
173;SDS011;75;48.784;9.364;2023-06-19T13:11:26;8.53;;;5.67;;
173;SDS011;75;48.784;9.364;2023-06-19T13:13:52;7.33;;;5.17;;
173;SDS011;75;48.784;9.364;2023-06-19T13:16:18;8.23;;;5.20;;
173;SDS011;75;48.784;9.364;2023-06-19T13:18:44;7.60;;;5.37;;
173;SDS011;75;48.784;9.364;2023-06-19T13:21:11;6.67;;;5.60;;
173;SDS011;75;48.784;9.364;2023-06-19T13:23:37;6.07;;;5.30;;
173;SDS011;75;48.784;9.364;2023-06-19T13:26:05;7.00;;;5.70;;
173;SDS011;75;48.784;9.364;2023-06-19T13:28:31;8.40;;;5.60;;
173;SDS011;75;48.784;9.364;2023-06-19T13:30:57;5.93;;;5.37;;
173;SDS011;75;48.784;9.364;2023-06-19T13:33:24;10.10;;;5.50;;
173;SDS011;75;48.784;9.364;2023-06-19T13:35:50;6.83;;;5.43;;
173;SDS011;75;48.784;9.364;2023-06-19T13:38:17;8.43;;;5.67;;
173;SDS011;75;48.784;9.364;2023-06-19T13:40:43;9.77;;;5.70;;
173;SDS011;75;48.784;9.364;2023-06-19T13:43:10;11.70;;;5.20;;
173;SDS011;75;48.784;9.364;2023-06-19T13:45:36;9.63;;;5.60;;
173;SDS011;75;48.784;9.364;2023-06-19T13:48:03;6.73;;;5.70;;
173;SDS011;75;48.784;9.364;2023-06-19T13:50:29;6.90;;;5.80;;
173;SDS011;75;48.784;9.364;2023-06-19T13:52:55;8.37;;;5.60;;
173;SDS011;75;48.784;9.364;2023-06-19T13:55:21;7.10;;;5.37;;
173;SDS011;75;48.784;9.364;2023-06-19T13:57:48;6.43;;;5.30;;
173;SDS011;75;48.784;9.364;2023-06-19T14:00:14;7.80;;;5.80;;
173;SDS011;75;48.784;9.364;2023-06-19T14:02:40;11.80;;;6.00;;
173;SDS011;75;48.784;9.364;2023-06-19T14:05:06;5.93;;;5.30;;
173;SDS011;75;48.784;9.364;2023-06-19T14:07:33;6.90;;;5.90;;
173;SDS011;75;48.784;9.364;2023-06-19T14:10:00;7.77;;;5.83;;
173;SDS011;75;48.784;9.364;2023-06-19T14:12:26;8.10;;;5.53;;
173;SDS011;75;48.784;9.364;2023-06-19T14:14:52;8.10;;;5.80;;
173;SDS011;75;48.784;9.364;2023-06-19T14:17:18;8.63;;;5.73;;
173;SDS011;75;48.784;9.364;2023-06-19T14:19:44;8.90;;;6.13;;
173;SDS011;75;48.784;9.364;2023-06-19T14:22:10;6.97;;;5.60;;
173;SDS011;75;48.784;9.364;2023-06-19T14:24:36;7.37;;;5.40;;
173;SDS011;75;48.784;9.364;2023-06-19T14:27:02;7.17;;;5.43;;
173;SDS011;75;48.784;9.364;2023-06-19T14:29:28;9.23;;;5.60;;
173;SDS011;75;48.784;9.364;2023-06-19T14:31:53;7.67;;;5.30;;
173;SDS011;75;48.784;9.364;2023-06-19T14:34:20;7.20;;;5.80;;
173;SDS011;75;48.784;9.364;2023-06-19T14:36:46;6.80;;;5.40;;
173;SDS011;75;48.784;9.364;2023-06-19T14:39:12;9.37;;;5.90;;
173;SDS011;75;48.784;9.364;2023-06-19T14:41:38;7.50;;;5.47;;
173;SDS011;75;48.784;9.364;2023-06-19T14:44:04;5.50;;;5.00;;
173;SDS011;75;48.784;9.364;2023-06-19T14:46:31;6.33;;;5.10;;
173;SDS011;75;48.784;9.364;2023-06-19T14:48:57;6.00;;;5.17;;
173;SDS011;75;48.784;9.364;2023-06-19T14:51:26;6.43;;;5.27;;
173;SDS011;75;48.784;9.364;2023-06-19T14:53:52;6.13;;;5.50;;
173;SDS011;75;48.784;9.364;2023-06-19T14:56:19;8.70;;;5.20;;
173;SDS011;75;48.784;9.364;2023-06-19T14:58:44;9.87;;;5.27;;
173;SDS011;75;48.784;9.364;2023-06-19T15:01:10;6.20;;;5.10;;
173;SDS011;75;48.784;9.364;2023-06-19T15:03:36;9.17;;;5.30;;
173;SDS011;75;48.784;9.364;2023-06-19T15:06:03;6.60;;;4.97;;
173;SDS011;75;48.784;9.364;2023-06-19T15:08:29;7.03;;;5.40;;
173;SDS011;75;48.784;9.364;2023-06-19T15:10:56;5.83;;;5.07;;
173;SDS011;75;48.784;9.364;2023-06-19T15:13:22;7.30;;;5.40;;
173;SDS011;75;48.784;9.364;2023-06-19T15:15:48;7.00;;;5.43;;
173;SDS011;75;48.784;9.364;2023-06-19T15:18:15;7.53;;;5.60;;
173;SDS011;75;48.784;9.364;2023-06-19T15:20:42;7.50;;;5.27;;
173;SDS011;75;48.784;9.364;2023-06-19T15:23:08;8.57;;;5.60;;
173;SDS011;75;48.784;9.364;2023-06-19T15:25:34;8.60;;;5.70;;
173;SDS011;75;48.784;9.364;2023-06-19T15:28:00;6.97;;;5.67;;
173;SDS011;75;48.784;9.364;2023-06-19T15:30:26;8.43;;;6.43;;
173;SDS011;75;48.784;9.364;2023-06-19T15:32:52;7.50;;;5.97;;
173;SDS011;75;48.784;9.364;2023-06-19T15:35:18;9.40;;;5.90;;
173;SDS011;75;48.784;9.364;2023-06-19T15:37:44;10.23;;;5.67;;
173;SDS011;75;48.784;9.364;2023-06-19T15:40:10;8.60;;;5.50;;
173;SDS011;75;48.784;9.364;2023-06-19T15:42:37;7.10;;;5.73;;
173;SDS011;75;48.784;9.364;2023-06-19T15:45:03;8.13;;;5.40;;
173;SDS011;75;48.784;9.364;2023-06-19T15:47:29;7.30;;;6.10;;
173;SDS011;75;48.784;9.364;2023-06-19T15:49:57;7.77;;;5.53;;
173;SDS011;75;48.784;9.364;2023-06-19T15:52:23;6.73;;;5.37;;
173;SDS011;75;48.784;9.364;2023-06-19T15:54:49;6.70;;;5.60;;
173;SDS011;75;48.784;9.364;2023-06-19T15:57:15;8.10;;;5.50;;